Time;durP1;ratioP1;P1;durP2;ratioP2;P2;SDS_P1;SDS_P2;PMS_P1;PMS_P2;Temp;Humidity;BMP_temperature;BMP_pressure;BME280_temperature;BME280_humidity;BME280_pressure;Samples;Min_cycle;Max_cycle;Signal;HPM_P1;HPM_P2
2021/10/10 00:01:08;;;;;;;15.77;7.97;;;9.50;99.90;;;;;;6171351;23;20197;-84
2021/10/10 00:03:37;;;;;;;13.85;7.90;;;9.50;99.90;;;;;;6171410;23;20255;-83
2021/10/10 00:06:04;;;;;;;10.73;8.00;;;9.50;99.90;;;;;;6170732;23;20193;-82
2021/10/10 00:08:31;;;;;;;14.23;7.88;;;9.60;99.90;;;;;;6170443;23;20256;-81
2021/10/10 00:10:58;;;;;;;9.48;6.72;;;9.60;99.90;;;;;;6169633;23;20169;-83
2021/10/10 00:13:25;;;;;;;13.85;7.50;;;9.50;99.90;;;;;;6169424;23;20193;-83
2021/10/10 00:15:53;;;;;;;13.52;7.85;;;9.50;99.90;;;;;;6177416;23;20264;-82
2021/10/10 00:18:23;;;;;;;14.32;9.35;;;9.50;99.90;;;;;;6176707;23;20193;-82
2021/10/10 00:20:51;;;;;;;14.68;11.18;;;9.50;99.90;;;;;;6179854;23;20157;-82
2021/10/10 00:23:19;;;;;;;13.27;8.80;;;9.50;99.90;;;;;;6182894;23;20201;-82
2021/10/10 00:25:46;;;;;;;11.73;8.45;;;9.40;99.90;;;;;;6184189;23;20252;-82
2021/10/10 00:28:13;;;;;;;12.18;9.10;;;9.40;99.90;;;;;;6184329;23;20181;-81
2021/10/10 00:30:40;;;;;;;10.05;7.95;;;9.40;99.90;;;;;;6184025;23;20176;-81
2021/10/10 00:33:07;;;;;;;15.55;9.32;;;9.30;99.90;;;;;;6179931;23;20173;-84
2021/10/10 00:35:34;;;;;;;10.00;8.13;;;9.30;99.90;;;;;;6176638;23;20201;-84
2021/10/10 00:38:08;;;;;;;13.05;8.10;;;9.30;99.90;;;;;;6173976;23;20201;-84
2021/10/10 00:40:35;;;;;;;15.10;9.57;;;9.30;99.90;;;;;;6172248;23;20213;-85
2021/10/10 00:43:16;;;;;;;14.02;9.25;;;9.30;99.90;;;;;;6171643;23;20183;-81
2021/10/10 00:45:48;;;;;;;12.10;8.30;;;9.20;99.90;;;;;;6172682;23;20187;-84
2021/10/10 00:48:16;;;;;;;11.27;9.38;;;9.30;99.90;;;;;;6171366;23;20205;-81
2021/10/10 00:50:46;;;;;;;12.30;7.75;;;9.30;99.90;;;;;;6171622;23;20224;-83
2021/10/10 00:53:45;;;;;;;11.40;8.68;;;9.30;99.90;;;;;;6170354;23;20194;-82
2021/10/10 00:59:15;;;;;;;10.35;7.50;;;9.20;99.90;;;;;;6171565;23;20200;-83
2021/10/10 01:01:43;;;;;;;9.43;7.28;;;9.20;99.90;;;;;;6173394;23;20164;-82
2021/10/10 01:04:29;;;;;;;12.27;8.45;;;9.10;99.90;;;;;;6171590;23;20200;-82
2021/10/10 01:07:01;;;;;;;11.07;8.63;;;9.10;99.90;;;;;;6170266;23;20252;-83
2021/10/10 01:09:29;;;;;;;16.02;9.57;;;9.00;99.90;;;;;;6170548;23;20197;-83
2021/10/10 01:11:58;;;;;;;12.82;10.10;;;9.00;99.90;;;;;;6171339;23;20196;-84
2021/10/10 01:14:26;;;;;;;12.45;7.82;;;8.90;99.90;;;;;;6170952;23;20204;-83
2021/10/10 01:16:53;;;;;;;11.30;8.90;;;8.80;99.90;;;;;;6171031;23;20518;-81
2021/10/10 01:19:20;;;;;;;12.68;9.35;;;8.90;99.90;;;;;;6171039;23;20213;-83
2021/10/10 01:21:49;;;;;;;14.80;10.25;;;8.80;99.90;;;;;;6170226;23;20206;-82
2021/10/10 01:31:41;;;;;;;9.98;7.53;;;8.80;99.90;;;;;;6050573;23;20185;-83
2021/10/10 01:34:08;;;;;;;12.45;9.93;;;8.80;99.90;;;;;;6141446;23;20180;-83
2021/10/10 01:36:43;;;;;;;11.10;8.57;;;8.70;99.90;;;;;;6170348;23;20199;-83
2021/10/10 01:39:12;;;;;;;15.77;10.18;;;8.70;99.90;;;;;;6168959;23;20201;-83
2021/10/10 01:41:39;;;;;;;15.38;10.32;;;8.70;99.90;;;;;;6168264;23;20774;-84
2021/10/10 01:44:34;;;;;;;12.10;9.15;;;8.60;99.90;;;;;;6168714;23;20216;-83
2021/10/10 01:47:02;;;;;;;11.38;8.55;;;8.60;99.90;;;;;;6168454;23;20211;-84
2021/10/10 01:49:29;;;;;;;10.98;8.57;;;8.60;99.90;;;;;;6168821;23;20203;-83
2021/10/10 01:51:56;;;;;;;12.13;9.45;;;8.50;99.90;;;;;;6169273;23;20222;-83
2021/10/10 01:54:24;;;;;;;17.52;9.30;;;8.60;99.90;;;;;;6170354;23;20203;-84
2021/10/10 01:56:52;;;;;;;14.48;8.85;;;8.50;99.90;;;;;;6174555;23;20193;-83
2021/10/10 01:59:19;;;;;;;10.05;7.95;;;8.50;99.90;;;;;;6169049;23;20201;-84
2021/10/10 02:01:46;;;;;;;11.45;8.77;;;8.40;99.90;;;;;;6169782;23;20195;-84
2021/10/10 02:04:13;;;;;;;24.85;9.50;;;8.40;99.90;;;;;;6169487;23;20223;-84
2021/10/10 02:06:40;;;;;;;12.70;8.93;;;8.40;99.90;;;;;;6169078;23;20517;-83
2021/10/10 02:09:07;;;;;;;13.48;8.70;;;8.40;99.90;;;;;;6168642;23;20287;-83
2021/10/10 02:11:36;;;;;;;12.23;7.72;;;8.30;99.90;;;;;;6168955;23;20210;-84
2021/10/10 02:14:03;;;;;;;12.77;8.50;;;8.40;99.90;;;;;;6169500;23;20161;-83
2021/10/10 02:16:30;;;;;;;13.32;9.00;;;8.40;99.90;;;;;;6170294;23;20173;-83
2021/10/10 02:18:57;;;;;;;10.63;8.70;;;8.30;99.90;;;;;;6170807;23;20258;-83
2021/10/10 02:21:24;;;;;;;13.90;10.07;;;8.20;99.90;;;;;;6169765;23;20239;-84
2021/10/10 02:23:51;;;;;;;10.98;8.05;;;8.20;99.90;;;;;;6171155;23;20276;-83
2021/10/10 02:26:18;;;;;;;11.43;8.23;;;8.20;99.90;;;;;;6170347;23;20212;-84
2021/10/10 02:28:52;;;;;;;13.48;8.60;;;8.20;99.90;;;;;;6168148;23;20192;-83
2021/10/10 02:31:19;;;;;;;10.15;8.10;;;8.20;99.90;;;;;;6168759;23;20168;-83
2021/10/10 02:33:46;;;;;;;12.02;8.77;;;8.20;99.90;;;;;;6169897;23;20193;-82
2021/10/10 02:36:13;;;;;;;14.55;9.52;;;8.20;99.90;;;;;;6169110;23;20251;-83
2021/10/10 02:38:45;;;;;;;12.70;8.25;;;8.10;99.90;;;;;;6168436;23;20204;-84
2021/10/10 02:41:12;;;;;;;13.98;9.02;;;8.10;99.90;;;;;;6167488;23;20172;-83
2021/10/10 02:43:39;;;;;;;11.95;9.02;;;8.10;99.90;;;;;;6165175;23;20261;-83
2021/10/10 02:46:07;;;;;;;18.05;10.10;;;8.10;99.90;;;;;;6165343;23;20198;-84
2021/10/10 02:48:35;;;;;;;15.13;8.35;;;8.10;99.90;;;;;;6167390;23;20200;-83
2021/10/10 02:51:02;;;;;;;13.65;9.05;;;8.10;99.90;;;;;;6167883;23;20179;-82
2021/10/10 02:53:29;;;;;;;13.77;9.23;;;8.00;99.90;;;;;;6168959;23;20187;-81
2021/10/10 02:55:56;;;;;;;14.18;9.57;;;8.00;99.90;;;;;;6167515;23;20183;-83
2021/10/10 02:58:23;;;;;;;12.45;9.30;;;8.00;99.90;;;;;;6167608;23;20746;-81
2021/10/10 03:00:50;;;;;;;13.23;9.43;;;8.00;99.90;;;;;;6165378;23;20186;-83
2021/10/10 03:03:27;;;;;;;13.45;9.07;;;7.90;99.90;;;;;;6165367;23;20188;-82
2021/10/10 03:05:54;;;;;;;11.18;8.15;;;7.90;99.90;;;;;;6165318;23;20187;-82
2021/10/10 03:08:21;;;;;;;11.15;8.40;;;7.90;99.90;;;;;;6166321;23;20207;-82
2021/10/10 03:10:48;;;;;;;12.65;9.40;;;7.90;99.90;;;;;;6164629;23;20184;-82
2021/10/10 03:13:15;;;;;;;12.23;9.68;;;7.90;99.90;;;;;;6165089;23;20449;-81
2021/10/10 03:15:43;;;;;;;11.43;9.20;;;7.90;99.90;;;;;;6164575;23;20167;-81
2021/10/10 03:18:10;;;;;;;10.90;9.30;;;7.80;99.90;;;;;;6166426;23;20203;-82
2021/10/10 03:20:38;;;;;;;10.80;9.50;;;7.80;99.90;;;;;;6165789;23;20190;-82
2021/10/10 03:23:05;;;;;;;12.70;9.20;;;7.70;99.90;;;;;;6165669;23;20191;-83
2021/10/10 03:25:33;;;;;;;16.23;9.05;;;7.60;99.90;;;;;;6165259;23;20203;-80
2021/10/10 03:28:00;;;;;;;15.55;11.02;;;7.60;99.90;;;;;;6165142;23;20208;-83
2021/10/10 03:30:27;;;;;;;11.95;8.85;;;7.50;99.90;;;;;;6165888;23;20179;-82
2021/10/10 03:32:54;;;;;;;12.57;8.98;;;7.50;99.90;;;;;;6167693;23;20189;-83
2021/10/10 03:35:21;;;;;;;12.68;9.00;;;7.50;99.90;;;;;;6168684;23;20188;-82
2021/10/10 03:37:50;;;;;;;12.35;9.10;;;7.50;99.90;;;;;;6168709;23;20186;-82
2021/10/10 03:40:17;;;;;;;12.75;9.60;;;7.50;99.90;;;;;;6168892;23;20649;-82
2021/10/10 03:42:45;;;;;;;11.15;8.35;;;7.50;99.90;;;;;;6168296;23;20176;-82
2021/10/10 03:45:12;;;;;;;13.20;9.50;;;7.40;99.90;;;;;;6168058;23;20239;-81
2021/10/10 03:47:41;;;;;;;11.77;8.52;;;7.40;99.90;;;;;;6167656;23;20680;-82
2021/10/10 03:50:09;;;;;;;13.23;9.13;;;7.40;99.90;;;;;;6167701;23;20264;-83
2021/10/10 03:52:36;;;;;;;14.10;9.80;;;7.40;99.90;;;;;;6168777;23;20190;-82
2021/10/10 03:57:56;;;;;;;12.88;9.68;;;7.40;99.90;;;;;;6152174;23;20255;-81
2021/10/10 04:00:24;;;;;;;10.02;8.18;;;7.40;99.90;;;;;;6166980;23;20177;-82
2021/10/10 04:02:58;;;;;;;13.80;9.18;;;7.40;99.90;;;;;;6166609;23;20180;-81
2021/10/10 04:05:37;;;;;;;12.80;8.70;;;7.40;99.90;;;;;;6168008;23;20168;-81
2021/10/10 04:08:05;;;;;;;15.02;9.65;;;7.40;99.90;;;;;;6168173;23;20222;-81
2021/10/10 04:10:33;;;;;;;14.23;10.45;;;7.40;99.90;;;;;;6167075;23;20175;-82
2021/10/10 04:13:00;;;;;;;12.35;9.98;;;7.40;99.90;;;;;;6165366;23;20587;-83
2021/10/10 04:15:27;;;;;;;15.80;9.15;;;7.40;99.90;;;;;;6166500;23;20400;-81
2021/10/10 04:17:54;;;;;;;15.02;9.38;;;7.30;99.90;;;;;;6167463;23;20530;-81
2021/10/10 04:20:22;;;;;;;12.18;10.88;;;7.30;99.90;;;;;;6166498;23;20635;-82
2021/10/10 04:22:49;;;;;;;15.43;11.07;;;7.20;99.90;;;;;;6169556;23;20183;-82
2021/10/10 04:25:17;;;;;;;13.38;9.88;;;7.10;99.90;;;;;;6170732;23;20191;-82
2021/10/10 04:27:45;;;;;;;12.73;9.93;;;7.20;99.90;;;;;;6171094;23;20195;-82
2021/10/10 04:30:15;;;;;;;13.13;9.57;;;7.10;99.90;;;;;;6169316;23;20242;-82
2021/10/10 04:32:42;;;;;;;19.17;10.45;;;7.10;99.90;;;;;;6168652;23;20189;-82
2021/10/10 04:35:10;;;;;;;15.98;10.75;;;7.00;99.90;;;;;;6167556;23;20181;-82
2021/10/10 04:37:37;;;;;;;16.70;10.60;;;7.00;99.90;;;;;;6168279;23;20171;-81
2021/10/10 04:40:06;;;;;;;13.88;10.35;;;7.00;99.90;;;;;;6167939;23;20180;-82
2021/10/10 04:42:35;;;;;;;13.35;10.45;;;6.90;99.90;;;;;;6167752;23;20177;-82
2021/10/10 04:45:12;;;;;;;14.15;10.07;;;6.90;99.90;;;;;;6168126;23;20180;-81
2021/10/10 04:47:39;;;;;;;11.05;9.32;;;6.90;99.90;;;;;;6168219;23;20188;-83
2021/10/10 04:50:06;;;;;;;17.92;11.25;;;6.90;99.90;;;;;;6169036;23;20294;-82
2021/10/10 04:52:33;;;;;;;14.90;10.60;;;6.80;99.90;;;;;;6170165;23;20182;-83
2021/10/10 04:55:02;;;;;;;15.00;11.07;;;6.80;99.90;;;;;;6169487;23;20178;-82
2021/10/10 04:57:29;;;;;;;14.77;9.25;;;6.70;99.90;;;;;;6169483;23;20244;-82
2021/10/10 04:59:56;;;;;;;14.25;9.65;;;6.70;99.90;;;;;;6169279;23;20196;-82
2021/10/10 05:02:25;;;;;;;13.88;10.88;;;6.70;99.90;;;;;;6168698;23;20206;-81
2021/10/10 05:04:53;;;;;;;15.98;11.63;;;6.70;99.90;;;;;;6172149;23;20182;-82
2021/10/10 05:07:20;;;;;;;16.90;10.30;;;6.70;99.90;;;;;;6171561;23;20193;-82
2021/10/10 05:09:48;;;;;;;16.05;10.20;;;6.70;99.90;;;;;;6170556;23;20213;-82
2021/10/10 05:12:15;;;;;;;13.85;10.32;;;6.70;99.90;;;;;;6169074;23;20181;-82
2021/10/10 05:14:42;;;;;;;12.95;9.80;;;6.70;99.90;;;;;;6169713;23;20229;-83
2021/10/10 05:17:09;;;;;;;15.07;10.45;;;6.70;99.90;;;;;;6169382;23;20253;-81
2021/10/10 05:19:38;;;;;;;12.65;10.32;;;6.70;99.90;;;;;;6167741;23;20201;-82
2021/10/10 05:22:05;;;;;;;14.75;11.20;;;6.70;99.90;;;;;;6168355;23;20174;-81
2021/10/10 05:24:32;;;;;;;14.80;10.63;;;6.60;99.90;;;;;;6167928;23;20491;-82
2021/10/10 05:27:00;;;;;;;23.30;10.90;;;6.60;99.90;;;;;;6167153;23;20196;-83
2021/10/10 05:29:27;;;;;;;13.05;10.95;;;6.60;99.90;;;;;;6171595;23;20200;-83
2021/10/10 05:31:55;;;;;;;15.07;11.55;;;6.60;99.90;;;;;;6167983;23;20184;-83
2021/10/10 05:34:22;;;;;;;13.73;10.38;;;6.60;99.90;;;;;;6166337;23;20173;-82
2021/10/10 05:36:50;;;;;;;13.73;10.57;;;6.60;99.90;;;;;;6166160;23;20181;-83
2021/10/10 05:39:17;;;;;;;12.15;10.15;;;6.60;99.90;;;;;;6164960;23;20205;-82
2021/10/10 05:41:44;;;;;;;10.73;8.80;;;6.60;99.90;;;;;;6164723;23;20276;-84
2021/10/10 05:44:12;;;;;;;16.92;10.57;;;6.60;99.90;;;;;;6165941;23;20186;-82
2021/10/10 05:46:39;;;;;;;14.02;10.75;;;6.60;99.90;;;;;;6165704;23;20583;-83
2021/10/10 05:49:06;;;;;;;16.92;11.93;;;6.60;99.90;;;;;;6166148;23;20572;-82
2021/10/10 05:51:33;;;;;;;14.52;11.30;;;6.60;99.90;;;;;;6165644;23;20314;-83
2021/10/10 05:54:02;;;;;;;12.13;9.68;;;6.60;99.90;;;;;;6172619;23;20226;-83
2021/10/10 05:56:31;;;;;;;13.68;11.02;;;6.60;99.90;;;;;;6168529;23;20248;-83
2021/10/10 05:59:07;;;;;;;16.27;11.95;;;6.60;99.90;;;;;;6166943;23;20265;-83
2021/10/10 06:01:35;;;;;;;49.33;36.00;;;6.70;99.90;;;;;;6169932;23;20166;-83
2021/10/10 06:04:03;;;;;;;38.15;28.88;;;6.60;99.90;;;;;;6167289;23;20174;-83
2021/10/10 06:06:30;;;;;;;30.55;25.10;;;6.70;99.90;;;;;;6169173;23;20963;-83
2021/10/10 06:12:04;;;;;;;23.30;14.82;;;6.80;99.90;;;;;;6170080;23;20190;-83
2021/10/10 06:14:31;;;;;;;16.80;10.90;;;6.80;99.90;;;;;;6165290;23;20156;-82
2021/10/10 06:16:58;;;;;;;15.18;10.10;;;6.80;99.90;;;;;;6163197;23;20795;-84
2021/10/10 06:19:25;;;;;;;15.50;11.57;;;6.90;99.90;;;;;;6163174;23;20196;-83
2021/10/10 06:21:52;;;;;;;16.02;10.88;;;6.90;99.90;;;;;;6164470;23;20204;-83
2021/10/10 06:24:21;;;;;;;13.02;9.77;;;6.90;99.90;;;;;;6164509;23;20180;-84
2021/10/10 06:26:48;;;;;;;14.15;10.30;;;7.00;99.90;;;;;;6164236;23;20206;-83
2021/10/10 06:29:17;;;;;;;12.80;9.85;;;7.10;99.90;;;;;;6176481;23;20259;-82
2021/10/10 06:31:44;;;;;;;14.30;9.50;;;7.10;99.90;;;;;;6176252;23;20232;-83
2021/10/10 06:36:52;;;;;;;13.27;10.50;;;7.30;99.90;;;;;;6160438;23;20191;-83
2021/10/10 06:39:20;;;;;;;13.07;9.68;;;7.40;99.90;;;;;;6162224;23;20188;-83
2021/10/10 06:41:49;;;;;;;16.50;10.10;;;7.80;99.90;;;;;;6162205;23;20515;-83
2021/10/10 06:44:18;;;;;;;16.52;9.30;;;8.40;99.90;;;;;;6163758;23;20219;-83
2021/10/10 06:46:45;;;;;;;19.88;9.45;;;8.70;99.90;;;;;;6162074;23;20216;-83
2021/10/10 06:49:13;;;;;;;14.30;9.43;;;9.30;99.90;;;;;;6161342;23;20501;-83
2021/10/10 06:51:40;;;;;;;13.90;9.68;;;9.60;99.90;;;;;;6161410;23;20175;-83
2021/10/10 06:54:07;;;;;;;12.75;8.95;;;10.00;99.90;;;;;;6161677;23;20645;-83
2021/10/10 06:56:34;;;;;;;15.15;9.60;;;10.80;99.90;;;;;;6163141;23;20199;-82
2021/10/10 06:59:03;;;;;;;11.52;8.32;;;11.50;99.90;;;;;;6160912;23;20233;-83
2021/10/10 07:01:31;;;;;;;13.63;9.88;;;11.70;99.90;;;;;;6161858;23;20194;-84
2021/10/10 07:03:58;;;;;;;13.45;9.77;;;11.20;99.90;;;;;;6162820;23;20184;-84
2021/10/10 07:06:26;;;;;;;18.83;10.35;;;10.70;99.90;;;;;;6163781;23;20223;-83
2021/10/10 07:08:53;;;;;;;12.85;9.75;;;10.20;99.90;;;;;;6163468;23;20212;-83
2021/10/10 07:11:20;;;;;;;15.77;11.30;;;10.10;99.90;;;;;;6163215;23;20249;-82
2021/10/10 07:13:47;;;;;;;11.38;9.45;;;10.20;99.90;;;;;;6163795;23;20279;-83
2021/10/10 07:16:22;;;;;;;11.30;9.27;;;10.90;99.90;;;;;;6166054;23;20174;-83
2021/10/10 07:18:52;;;;;;;16.40;10.30;;;11.50;99.90;;;;;;6177821;23;20187;-81
2021/10/10 07:21:27;;;;;;;9.73;7.82;;;12.60;98.80;;;;;;6182539;23;20169;-82
2021/10/10 07:24:53;;;;;;;15.88;9.75;;;13.60;97.00;;;;;;6183158;23;20158;-82
2021/10/10 07:26:57;;;;;;;12.05;9.80;;;14.50;93.50;;;;;;6178398;23;20197;-83
2021/10/10 07:29:24;;;;;;;11.27;8.15;;;15.40;91.20;;;;;;6168977;23;20197;-85
2021/10/10 07:31:52;;;;;;;11.55;9.65;;;15.60;90.40;;;;;;6170079;23;20176;-84
2021/10/10 07:34:37;;;;;;;11.85;9.65;;;15.70;89.00;;;;;;6166005;23;20179;-84
2021/10/10 07:37:05;;;;;;;12.20;9.98;;;15.60;88.30;;;;;;6164667;23;20181;-84
2021/10/10 07:39:32;;;;;;;14.50;9.88;;;15.80;88.80;;;;;;6170530;23;20202;-83
2021/10/10 07:41:59;;;;;;;11.80;9.67;;;16.30;87.40;;;;;;6178088;23;20244;-82
2021/10/10 07:44:30;;;;;;;12.83;8.77;;;16.70;85.00;;;;;;6178527;23;20397;-82
2021/10/10 07:47:07;;;;;;;14.13;9.57;;;16.70;84.20;;;;;;6177727;23;20455;-84
2021/10/10 07:49:36;;;;;;;12.90;9.90;;;16.70;83.70;;;;;;6178013;23;20423;-83
2021/10/10 07:52:04;;;;;;;11.90;8.37;;;16.50;83.90;;;;;;6174918;23;20413;-84
2021/10/10 07:54:31;;;;;;;12.83;8.83;;;17.10;83.30;;;;;;6173508;23;20440;-84
2021/10/10 07:56:58;;;;;;;10.33;8.43;;;17.90;81.50;;;;;;6170741;23;20775;-84
2021/10/10 07:59:25;;;;;;;12.23;9.10;;;18.50;79.60;;;;;;6168168;23;20425;-84
2021/10/10 08:01:53;;;;;;;11.20;9.90;;;18.40;79.00;;;;;;6168203;23;20409;-83
2021/10/10 08:04:20;;;;;;;13.13;9.03;;;18.30;78.70;;;;;;6166126;23;20396;-83
2021/10/10 08:06:49;;;;;;;9.70;8.33;;;18.70;78.20;;;;;;6166983;23;20397;-84
2021/10/10 08:09:16;;;;;;;11.70;10.30;;;19.10;77.90;;;;;;6166661;23;20483;-83
2021/10/10 08:11:44;;;;;;;13.63;10.07;;;19.70;75.90;;;;;;6167354;23;20405;-84
2021/10/10 08:14:11;;;;;;;12.00;9.27;;;19.10;75.10;;;;;;6169317;23;20385;-82
2021/10/10 08:16:39;;;;;;;9.03;7.47;;;19.30;76.40;;;;;;6166331;23;20427;-83
2021/10/10 08:19:06;;;;;;;14.03;9.67;;;19.00;76.60;;;;;;6165620;23;20443;-83
2021/10/10 08:21:34;;;;;;;13.97;10.87;;;18.40;77.10;;;;;;6168709;23;20404;-84
2021/10/10 08:24:03;;;;;;;10.97;9.00;;;17.50;79.40;;;;;;6167491;23;20500;-83
2021/10/10 08:26:30;;;;;;;11.65;9.55;;;16.70;81.60;;;;;;6166784;23;20402;-83
2021/10/10 08:28:58;;;;;;;13.68;9.32;;;15.60;84.90;;;;;;6168276;23;20257;-84
2021/10/10 08:31:25;;;;;;;18.05;11.60;;;14.50;87.10;;;;;;6168532;23;20260;-83
2021/10/10 08:33:52;;;;;;;13.73;10.00;;;14.10;90.30;;;;;;6166507;23;20173;-84
2021/10/10 08:36:19;;;;;;;15.05;9.32;;;13.90;91.50;;;;;;6165639;23;20180;-83
2021/10/10 08:38:48;;;;;;;11.55;8.88;;;13.80;92.10;;;;;;6166785;23;20197;-84
2021/10/10 08:41:29;;;;;;;13.38;9.07;;;13.70;92.30;;;;;;6170476;23;20178;-83
2021/10/10 08:43:57;;;;;;;13.80;10.43;;;13.80;92.00;;;;;;6172236;23;20203;-83
2021/10/10 08:46:25;;;;;;;11.63;9.48;;;13.90;92.60;;;;;;6177731;23;20229;-83
2021/10/10 08:48:53;;;;;;;14.15;10.02;;;13.80;92.40;;;;;;6180598;23;20207;-83
2021/10/10 08:51:21;;;;;;;13.45;10.00;;;13.50;93.20;;;;;;6167124;23;20181;-82
2021/10/10 08:53:48;;;;;;;10.50;9.40;;;13.60;93.30;;;;;;6185142;23;20177;-83
2021/10/10 08:56:16;;;;;;;13.30;9.02;;;13.90;93.20;;;;;;6184683;23;20176;-83
2021/10/10 08:58:46;;;;;;;13.27;10.93;;;14.60;92.20;;;;;;6183988;23;20251;-83
2021/10/10 09:01:18;;;;;;;15.43;10.23;;;15.50;90.40;;;;;;6184058;23;20186;-83
2021/10/10 09:03:49;;;;;;;17.23;9.50;;;16.60;87.20;;;;;;6182106;23;20409;-83
2021/10/10 09:06:16;;;;;;;18.57;9.70;;;18.00;84.00;;;;;;6180601;23;20484;-83
2021/10/10 09:08:46;;;;;;;11.80;8.20;;;18.30;80.80;;;;;;6178834;23;20457;-83
2021/10/10 09:11:13;;;;;;;8.07;7.27;;;18.50;78.80;;;;;;6175685;23;20407;-83
2021/10/10 09:13:42;;;;;;;10.63;8.90;;;18.40;78.70;;;;;;6171804;23;20892;-83
2021/10/10 09:16:13;;;;;;;17.13;10.50;;;18.40;78.70;;;;;;6168992;23;20400;-84
2021/10/10 09:18:41;;;;;;;11.93;9.27;;;18.70;78.60;;;;;;6168611;23;20428;-83
2021/10/10 09:21:17;;;;;;;13.03;8.70;;;18.80;77.80;;;;;;6169046;23;20445;-83
2021/10/10 09:23:47;;;;;;;13.70;9.60;;;19.00;78.50;;;;;;6168382;23;20410;-83
2021/10/10 09:26:17;;;;;;;11.23;9.47;;;19.00;78.30;;;;;;6168349;23;20397;-83
2021/10/10 09:28:46;;;;;;;14.17;10.23;;;19.00;78.30;;;;;;6141981;23;20450;-83
2021/10/10 09:31:16;;;;;;;12.67;10.70;;;19.20;78.80;;;;;;6169271;23;20399;-82
2021/10/10 09:33:47;;;;;;;11.43;8.50;;;19.10;78.10;;;;;;6169587;23;20403;-83
2021/10/10 09:36:18;;;;;;;12.83;9.77;;;19.40;77.10;;;;;;6169193;23;20401;-82
2021/10/10 09:38:51;;;;;;;12.77;10.03;;;18.70;77.60;;;;;;6182657;23;20550;-83
2021/10/10 09:41:27;;;;;;;11.20;9.20;;;18.70;78.80;;;;;;6182821;23;20408;-83
2021/10/10 09:44:08;;;;;;;12.70;9.77;;;18.20;79.90;;;;;;6182190;23;20408;-84
2021/10/10 09:46:40;;;;;;;19.40;13.13;;;18.00;80.50;;;;;;6182554;23;20395;-83
2021/10/10 09:49:35;;;;;;;21.80;12.83;;;17.60;81.50;;;;;;6182510;23;20464;-82
2021/10/10 09:52:12;;;;;;;14.77;9.47;;;17.60;82.10;;;;;;6131088;23;20464;-81
2021/10/10 09:54:52;;;;;;;11.57;10.13;;;17.70;82.40;;;;;;6182939;23;20463;-82
2021/10/10 09:57:20;;;;;;;10.73;8.90;;;17.50;83.00;;;;;;6182426;23;20403;-82
2021/10/10 09:59:47;;;;;;;13.97;10.67;;;17.60;82.70;;;;;;6182421;23;20483;-82
2021/10/10 10:02:17;;;;;;;12.77;10.90;;;17.60;84.50;;;;;;6182804;23;20406;-82
2021/10/10 10:04:49;;;;;;;16.60;9.60;;;17.60;84.20;;;;;;6182806;23;20408;-82
2021/10/10 10:07:17;;;;;;;16.63;10.77;;;17.40;83.40;;;;;;6182780;23;20151;-82
2021/10/10 10:09:50;;;;;;;16.23;11.38;;;17.20;84.80;;;;;;6182486;23;20420;-82
2021/10/10 10:12:18;;;;;;;13.05;10.93;;;16.80;88.80;;;;;;6182821;23;20169;-83
2021/10/10 10:14:50;;;;;;;15.55;11.55;;;16.50;88.60;;;;;;6182550;23;20233;-82
2021/10/10 10:17:33;;;;;;;15.77;11.18;;;16.50;89.20;;;;;;6183106;23;20174;-83
2021/10/10 10:20:02;;;;;;;13.80;11.30;;;16.50;90.50;;;;;;6182327;23;20203;-83
2021/10/10 10:22:35;;;;;;;14.60;10.85;;;16.80;90.00;;;;;;6180919;23;20176;-84
2021/10/10 10:25:03;;;;;;;17.40;10.70;;;16.80;89.90;;;;;;6172612;23;20632;-82
2021/10/10 10:27:31;;;;;;;12.88;10.70;;;16.70;87.70;;;;;;6174619;23;20186;-86
2021/10/10 10:30:01;;;;;;;15.73;11.55;;;16.60;90.20;;;;;;6175518;23;20198;-84
2021/10/10 10:32:36;;;;;;;12.88;10.70;;;16.40;89.70;;;;;;6174650;23;20166;-84
2021/10/10 10:35:05;;;;;;;14.52;11.90;;;16.30;90.00;;;;;;6173874;23;20168;-85
2021/10/10 10:38:00;;;;;;;14.75;11.10;;;16.40;90.10;;;;;;6173223;23;20181;-84
2021/10/10 10:40:40;;;;;;;12.98;10.68;;;16.40;90.50;;;;;;6173540;23;20177;-84
2021/10/10 10:43:12;;;;;;;12.02;10.13;;;16.30;90.60;;;;;;6173989;23;20170;-84
2021/10/10 10:45:41;;;;;;;16.02;11.38;;;16.10;91.00;;;;;;6171523;23;20164;-84
2021/10/10 10:48:31;;;;;;;15.32;11.43;;;16.00;91.10;;;;;;6172794;23;20255;-84
2021/10/10 10:51:17;;;;;;;14.50;11.05;;;16.00;91.10;;;;;;6171829;23;20186;-83
2021/10/10 10:53:44;;;;;;;14.77;10.88;;;15.60;91.70;;;;;;6171280;23;20186;-83
2021/10/10 10:56:25;;;;;;;16.23;11.05;;;15.60;92.60;;;;;;6170283;23;20172;-83
2021/10/10 10:58:57;;;;;;;14.15;11.70;;;15.80;92.40;;;;;;6171515;23;20198;-85
2021/10/10 11:01:25;;;;;;;12.48;10.63;;;15.70;93.10;;;;;;6172520;23;20178;-85
2021/10/10 11:04:25;;;;;;;14.82;10.82;;;15.80;92.50;;;;;;6172173;23;20178;-84
2021/10/10 11:06:57;;;;;;;15.15;11.80;;;15.50;93.40;;;;;;6169476;23;20193;-84
2021/10/10 11:09:26;;;;;;;15.57;12.18;;;15.70;93.20;;;;;;6167581;23;20201;-84
2021/10/10 11:12:00;;;;;;;16.83;12.38;;;15.70;93.30;;;;;;6167239;23;20213;-83
2021/10/10 11:14:29;;;;;;;12.40;10.98;;;15.70;93.10;;;;;;6166951;23;20189;-84
2021/10/10 11:17:05;;;;;;;16.85;12.25;;;15.90;93.60;;;;;;6165049;23;20257;-84
2021/10/10 11:19:34;;;;;;;14.45;11.73;;;15.80;93.30;;;;;;6163765;23;20206;-83
2021/10/10 11:22:01;;;;;;;17.90;12.57;;;16.10;93.20;;;;;;6166454;23;20233;-84
2021/10/10 11:24:28;;;;;;;12.40;11.10;;;15.90;93.00;;;;;;6167133;23;20181;-84
2021/10/10 11:26:58;;;;;;;13.93;10.90;;;15.60;93.10;;;;;;6166682;23;20166;-84
2021/10/10 11:29:27;;;;;;;13.43;11.30;;;15.60;94.50;;;;;;6165966;23;20198;-84
2021/10/10 11:31:55;;;;;;;14.10;12.52;;;15.70;93.90;;;;;;6165528;23;20185;-85
2021/10/10 11:34:25;;;;;;;16.92;12.32;;;15.60;94.10;;;;;;6166773;23;20202;-84
2021/10/10 11:36:55;;;;;;;13.52;12.10;;;15.40;94.60;;;;;;6166149;23;20177;-84
2021/10/10 11:39:23;;;;;;;18.10;13.15;;;15.50;94.80;;;;;;6168744;23;20199;-84
2021/10/10 11:41:52;;;;;;;18.17;12.80;;;15.60;94.40;;;;;;6178180;23;20416;-83
2021/10/10 11:44:21;;;;;;;16.30;12.57;;;15.60;94.70;;;;;;6175284;23;20163;-84
2021/10/10 11:46:51;;;;;;;18.20;12.27;;;15.60;94.40;;;;;;6172825;23;20187;-84
2021/10/10 11:49:37;;;;;;;14.00;12.20;;;15.40;95.40;;;;;;6174933;23;20206;-83
2021/10/10 11:52:22;;;;;;;16.42;12.25;;;15.50;94.90;;;;;;6171330;23;20166;-84
2021/10/10 11:54:57;;;;;;;14.30;11.80;;;15.60;96.00;;;;;;6166418;23;20177;-84
2021/10/10 11:57:26;;;;;;;15.82;12.63;;;15.60;95.00;;;;;;6166890;23;20168;-84
2021/10/10 11:59:57;;;;;;;16.30;12.70;;;15.40;95.60;;;;;;6167536;23;20266;-83
2021/10/10 12:02:25;;;;;;;13.43;11.73;;;15.30;95.90;;;;;;6166118;23;20240;-84
2021/10/10 12:05:05;;;;;;;14.73;11.32;;;15.50;95.80;;;;;;6166165;23;20196;-84
2021/10/10 12:07:46;;;;;;;14.63;11.25;;;15.60;95.40;;;;;;6169808;23;20161;-84
2021/10/10 12:10:16;;;;;;;16.08;13.18;;;15.70;95.60;;;;;;6171889;23;20209;-84
2021/10/10 12:12:43;;;;;;;16.42;12.25;;;15.60;95.50;;;;;;6166560;23;20193;-83
2021/10/10 12:15:11;;;;;;;16.60;11.70;;;15.40;95.30;;;;;;6165111;23;20193;-83
2021/10/10 12:17:40;;;;;;;16.73;13.05;;;15.50;95.50;;;;;;6176036;23;20169;-82
2021/10/10 12:20:35;;;;;;;12.35;11.00;;;15.50;95.70;;;;;;6183518;23;20165;-82
2021/10/10 12:23:06;;;;;;;15.95;12.13;;;15.50;95.40;;;;;;6183889;23;20172;-81
2021/10/10 12:25:35;;;;;;;17.02;13.73;;;15.40;95.70;;;;;;6183989;23;20217;-81
2021/10/10 12:28:05;;;;;;;14.98;12.18;;;15.40;96.20;;;;;;6170166;23;20215;-83
2021/10/10 12:30:36;;;;;;;18.42;13.13;;;15.30;96.90;;;;;;6171787;23;20184;-84
2021/10/10 12:33:24;;;;;;;20.23;11.93;;;15.30;96.80;;;;;;6172407;23;20165;-83
2021/10/10 12:35:56;;;;;;;20.55;14.25;;;15.50;96.50;;;;;;6174391;23;20253;-84
2021/10/10 12:38:40;;;;;;;15.85;12.95;;;15.40;96.40;;;;;;6172291;23;20204;-82
2021/10/10 12:41:27;;;;;;;16.55;13.63;;;15.40;96.80;;;;;;6173135;23;20241;-83
2021/10/10 12:44:14;;;;;;;18.70;13.95;;;15.40;97.60;;;;;;6176423;23;20181;-83
2021/10/10 12:46:51;;;;;;;20.27;14.57;;;15.40;97.30;;;;;;6174475;23;20174;-83
2021/10/10 12:49:30;;;;;;;16.75;13.35;;;15.40;97.20;;;;;;6177685;23;20215;-82
2021/10/10 12:51:58;;;;;;;23.83;14.05;;;15.50;96.50;;;;;;6175946;23;20177;-82
2021/10/10 12:54:28;;;;;;;16.85;13.40;;;15.50;96.90;;;;;;6180272;23;20168;-80
2021/10/10 12:57:01;;;;;;;17.00;13.68;;;15.40;97.20;;;;;;6182860;23;20169;-80
2021/10/10 12:59:28;;;;;;;16.73;15.02;;;15.50;96.70;;;;;;6182907;23;20195;-82
2021/10/10 13:01:56;;;;;;;16.30;13.32;;;15.70;97.20;;;;;;6182809;23;20157;-84
2021/10/10 13:04:23;;;;;;;17.48;12.93;;;15.80;97.00;;;;;;6183773;23;20214;-82
2021/10/10 13:06:51;;;;;;;16.08;13.48;;;15.90;96.90;;;;;;6182973;23;20213;-83
2021/10/10 13:09:28;;;;;;;21.90;14.85;;;15.80;97.00;;;;;;6183184;23;20194;-82
2021/10/10 13:11:55;;;;;;;21.45;14.40;;;15.90;96.80;;;;;;6182797;23;20198;-84